Airfield :
LOGIN :

Register | Disclaimer

   EN    FR    IT 

 










Legend :    VFR   Marginal VFR   IFR   Intensive IFR   Very Intensive IFR
Visi :
Ceiling :
>= 8 km
>= 3000ft
5 to 8 km
1000 to 3000 ft
1500m to 5 km
500 to 1000 ft
800 to 1500m
200 to 500 ft
< 800m
< 200 ft
Symbols :   Thunderstorms  Fog  Heavy snow  Heavy precipitations  Wind > 20 kt
SIGMETs :     Misc.  Thunderstorms  Icing  Turbulence  Mountain Waves  Volcanic Ashes






- Airport Elevation : 646 ft
- IATA code : VNO


EYVI - Vilnius int.

CURRENT METAR :
  • 090020Z 17006KT CAVOK 03/M02 Q1020 NOSIG

EXPIRED METARs :
  • 082350Z 18005KT CAVOK 03/M02 Q1021 NOSIG
  • 082320Z 17004KT CAVOK 03/M02 Q1021 NOSIG
  • 082250Z 18005KT CAVOK 03/M02 Q1022 NOSIG
  • 082220Z 17006KT CAVOK 03/M02 Q1022 NOSIG
  • 082150Z 18005KT CAVOK 04/M02 Q1022 NOSIG
  • 082120Z 19003KT 8000 NSC 03/M02 Q1022 NOSIG

TAF TAF EYVI
Valid from the 09 at 00:00 until the 10 at 00:00 UTC


082312Z 0900/0924 18008KT 7000 NSC
PROB30
TEMPO 0900/0904 3000 BR SCT005
BECMG 0904/0906 BKN030
BECMG 0909/0910 29015G25KT
TEMPO 0910/0920 BKN020CB
BECMG 0920/0921 36010KT NSC



MET'MAP, your aeronautical weather chart ! - Copyright ORBIFLY December 2007 - Disclaimer

ORBIFLY MET'MAP TEAM :

Programming & Development : Alexandra Zaïnal
Concept & original design : Baudouin d'Aumeries
Assistance for programming : Marc-Olivier Méhu
Technical & hardware support : Manuel Goepfert

Contact : metmap@orbifly.com




SOURCES & CREDITS :

   NOAA